sensor_id;sensor_type;location;lat;lon;timestamp;temperature;humidity
15341;DHT22;7770;52.158;5.372;2023-11-18T00:01:32;5.10;99.90
15341;DHT22;7770;52.158;5.372;2023-11-18T00:04:19;5.10;99.90
15341;DHT22;7770;52.158;5.372;2023-11-18T00:07:05;5.10;99.90
15341;DHT22;7770;52.158;5.372;2023-11-18T00:09:52;5.10;99.90
15341;DHT22;7770;52.158;5.372;2023-11-18T00:12:38;5.10;99.90
15341;DHT22;7770;52.158;5.372;2023-11-18T00:15:27;5.10;99.90
15341;DHT22;7770;52.158;5.372;2023-11-18T00:18:12;5.10;99.90
15341;DHT22;7770;52.158;5.372;2023-11-18T00:20:59;5.10;99.90
15341;DHT22;7770;52.158;5.372;2023-11-18T00:23:45;5.20;99.90
15341;DHT22;7770;52.158;5.372;2023-11-18T00:26:31;5.20;99.90
15341;DHT22;7770;52.158;5.372;2023-11-18T00:29:17;5.20;99.90
15341;DHT22;7770;52.158;5.372;2023-11-18T00:32:03;5.20;99.90
15341;DHT22;7770;52.158;5.372;2023-11-18T00:34:50;5.10;99.90
15341;DHT22;7770;52.158;5.372;2023-11-18T00:37:36;5.10;99.90
15341;DHT22;7770;52.158;5.372;2023-11-18T00:40:38;5.10;99.90
15341;DHT22;7770;52.158;5.372;2023-11-18T00:43:36;5.10;99.90
15341;DHT22;7770;52.158;5.372;2023-11-18T00:46:26;5.00;99.90
15341;DHT22;7770;52.158;5.372;2023-11-18T00:49:12;5.00;99.90
15341;DHT22;7770;52.158;5.372;2023-11-18T00:51:59;5.00;99.90
15341;DHT22;7770;52.158;5.372;2023-11-18T00:54:45;5.10;99.90
15341;DHT22;7770;52.158;5.372;2023-11-18T00:57:31;5.10;99.90
15341;DHT22;7770;52.158;5.372;2023-11-18T01:00:17;5.20;99.90
15341;DHT22;7770;52.158;5.372;2023-11-18T01:03:07;5.20;99.90
15341;DHT22;7770;52.158;5.372;2023-11-18T01:05:53;5.30;99.90
15341;DHT22;7770;52.158;5.372;2023-11-18T01:08:55;5.30;99.90
15341;DHT22;7770;52.158;5.372;2023-11-18T01:11:55;5.30;99.90
15341;DHT22;7770;52.158;5.372;2023-11-18T01:15:00;5.30;99.90
15341;DHT22;7770;52.158;5.372;2023-11-18T01:18:04;5.30;99.90
15341;DHT22;7770;52.158;5.372;2023-11-18T01:21:05;5.40;99.90
15341;DHT22;7770;52.158;5.372;2023-11-18T01:24:13;5.40;99.90
15341;DHT22;7770;52.158;5.372;2023-11-18T01:27:18;5.40;99.90
15341;DHT22;7770;52.158;5.372;2023-11-18T01:30:23;5.40;99.90
15341;DHT22;7770;52.158;5.372;2023-11-18T01:33:30;5.30;99.90
15341;DHT22;7770;52.158;5.372;2023-11-18T01:36:40;5.30;99.90
15341;DHT22;7770;52.158;5.372;2023-11-18T01:39:42;5.30;99.90
15341;DHT22;7770;52.158;5.372;2023-11-18T01:42:42;5.30;99.90
15341;DHT22;7770;52.158;5.372;2023-11-18T01:46:00;5.30;99.90
15341;DHT22;7770;52.158;5.372;2023-11-18T01:49:09;5.20;99.90
15341;DHT22;7770;52.158;5.372;2023-11-18T01:51:56;5.30;99.90
15341;DHT22;7770;52.158;5.372;2023-11-18T01:55:00;5.30;99.90
15341;DHT22;7770;52.158;5.372;2023-11-18T01:57:49;5.30;99.90
15341;DHT22;7770;52.158;5.372;2023-11-18T02:00:37;5.20;99.90
15341;DHT22;7770;52.158;5.372;2023-11-18T02:03:25;5.20;99.90
15341;DHT22;7770;52.158;5.372;2023-11-18T02:06:29;5.20;99.90
15341;DHT22;7770;52.158;5.372;2023-11-18T02:09:35;5.20;99.90
15341;DHT22;7770;52.158;5.372;2023-11-18T02:12:53;5.10;99.90
15341;DHT22;7770;52.158;5.372;2023-11-18T02:16:04;5.10;99.90
15341;DHT22;7770;52.158;5.372;2023-11-18T02:19:20;5.10;99.90
15341;DHT22;7770;52.158;5.372;2023-11-18T02:22:25;5.10;99.90
15341;DHT22;7770;52.158;5.372;2023-11-18T02:25:27;5.10;99.90
15341;DHT22;7770;52.158;5.372;2023-11-18T02:28:33;5.10;99.90
15341;DHT22;7770;52.158;5.372;2023-11-18T02:31:39;5.10;99.90
15341;DHT22;7770;52.158;5.372;2023-11-18T02:34:51;5.10;99.90
15341;DHT22;7770;52.158;5.372;2023-11-18T02:38:01;5.20;99.90
15341;DHT22;7770;52.158;5.372;2023-11-18T02:40:52;5.20;99.90
15341;DHT22;7770;52.158;5.372;2023-11-18T02:43:42;5.20;99.90
15341;DHT22;7770;52.158;5.372;2023-11-18T02:46:55;5.20;99.90
15341;DHT22;7770;52.158;5.372;2023-11-18T02:50:05;5.20;99.90
15341;DHT22;7770;52.158;5.372;2023-11-18T02:53:14;5.30;99.90
15341;DHT22;7770;52.158;5.372;2023-11-18T02:56:23;5.30;99.90
15341;DHT22;7770;52.158;5.372;2023-11-18T02:59:31;5.20;99.90
15341;DHT22;7770;52.158;5.372;2023-11-18T03:02:40;5.20;99.90
15341;DHT22;7770;52.158;5.372;2023-11-18T03:05:48;5.20;99.90
15341;DHT22;7770;52.158;5.372;2023-11-18T03:08:57;5.20;99.90
15341;DHT22;7770;52.158;5.372;2023-11-18T03:12:06;5.20;99.90
15341;DHT22;7770;52.158;5.372;2023-11-18T03:15:15;5.10;99.90
15341;DHT22;7770;52.158;5.372;2023-11-18T03:18:08;5.10;99.90
15341;DHT22;7770;52.158;5.372;2023-11-18T03:21:17;5.10;99.90
15341;DHT22;7770;52.158;5.372;2023-11-18T03:24:26;5.20;99.90
15341;DHT22;7770;52.158;5.372;2023-11-18T03:27:34;5.10;99.90
15341;DHT22;7770;52.158;5.372;2023-11-18T03:30:43;5.20;99.90
15341;DHT22;7770;52.158;5.372;2023-11-18T03:33:52;5.10;99.90
15341;DHT22;7770;52.158;5.372;2023-11-18T03:37:01;5.10;99.90
15341;DHT22;7770;52.158;5.372;2023-11-18T03:40:11;5.20;99.90
15341;DHT22;7770;52.158;5.372;2023-11-18T03:43:21;5.20;99.90
15341;DHT22;7770;52.158;5.372;2023-11-18T03:46:29;5.20;99.90
15341;DHT22;7770;52.158;5.372;2023-11-18T03:49:37;5.20;99.90
15341;DHT22;7770;52.158;5.372;2023-11-18T03:52:46;5.20;99.90
15341;DHT22;7770;52.158;5.372;2023-11-18T03:55:56;5.20;99.90
15341;DHT22;7770;52.158;5.372;2023-11-18T03:59:05;5.20;99.90
15341;DHT22;7770;52.158;5.372;2023-11-18T04:02:13;5.20;99.90
15341;DHT22;7770;52.158;5.372;2023-11-18T04:05:22;5.20;99.90
15341;DHT22;7770;52.158;5.372;2023-11-18T04:08:30;5.30;99.90
15341;DHT22;7770;52.158;5.372;2023-11-18T04:11:39;5.20;99.90
15341;DHT22;7770;52.158;5.372;2023-11-18T04:14:48;5.30;99.90
15341;DHT22;7770;52.158;5.372;2023-11-18T04:17:57;5.20;99.90
15341;DHT22;7770;52.158;5.372;2023-11-18T04:21:06;5.20;99.90
15341;DHT22;7770;52.158;5.372;2023-11-18T04:24:14;5.30;99.90
15341;DHT22;7770;52.158;5.372;2023-11-18T04:27:23;5.30;99.90
15341;DHT22;7770;52.158;5.372;2023-11-18T04:30:31;5.30;99.90
15341;DHT22;7770;52.158;5.372;2023-11-18T04:33:40;5.30;99.90
15341;DHT22;7770;52.158;5.372;2023-11-18T04:36:49;5.30;99.90
15341;DHT22;7770;52.158;5.372;2023-11-18T04:39:58;5.30;99.90
15341;DHT22;7770;52.158;5.372;2023-11-18T04:43:08;5.30;99.90
15341;DHT22;7770;52.158;5.372;2023-11-18T04:46:17;5.40;99.90
15341;DHT22;7770;52.158;5.372;2023-11-18T04:49:25;5.40;99.90
15341;DHT22;7770;52.158;5.372;2023-11-18T04:52:34;5.40;99.90
15341;DHT22;7770;52.158;5.372;2023-11-18T04:55:42;5.40;99.90
15341;DHT22;7770;52.158;5.372;2023-11-18T04:58:55;5.40;99.90
15341;DHT22;7770;52.158;5.372;2023-11-18T05:02:04;5.40;99.90
15341;DHT22;7770;52.158;5.372;2023-11-18T05:05:12;5.50;99.90
15341;DHT22;7770;52.158;5.372;2023-11-18T05:08:23;5.50;99.90
15341;DHT22;7770;52.158;5.372;2023-11-18T05:11:31;5.50;99.90
15341;DHT22;7770;52.158;5.372;2023-11-18T05:14:40;5.50;99.90
15341;DHT22;7770;52.158;5.372;2023-11-18T05:17:53;5.50;99.90
15341;DHT22;7770;52.158;5.372;2023-11-18T05:21:03;5.50;99.90
15341;DHT22;7770;52.158;5.372;2023-11-18T05:24:12;5.50;99.90
15341;DHT22;7770;52.158;5.372;2023-11-18T05:27:20;5.50;99.90
15341;DHT22;7770;52.158;5.372;2023-11-18T05:30:29;5.50;99.90
15341;DHT22;7770;52.158;5.372;2023-11-18T05:33:38;5.60;99.90
15341;DHT22;7770;52.158;5.372;2023-11-18T05:36:48;5.60;99.90
15341;DHT22;7770;52.158;5.372;2023-11-18T05:39:56;5.50;99.90
15341;DHT22;7770;52.158;5.372;2023-11-18T05:43:05;5.60;99.90
15341;DHT22;7770;52.158;5.372;2023-11-18T05:46:26;5.60;99.90
15341;DHT22;7770;52.158;5.372;2023-11-18T05:49:37;5.60;99.90
15341;DHT22;7770;52.158;5.372;2023-11-18T05:52:46;5.70;99.90
15341;DHT22;7770;52.158;5.372;2023-11-18T05:55:54;5.60;99.90
15341;DHT22;7770;52.158;5.372;2023-11-18T05:59:03;5.60;99.90
15341;DHT22;7770;52.158;5.372;2023-11-18T06:02:12;5.70;99.90
15341;DHT22;7770;52.158;5.372;2023-11-18T06:05:21;5.70;99.90
15341;DHT22;7770;52.158;5.372;2023-11-18T06:08:30;5.70;99.90
15341;DHT22;7770;52.158;5.372;2023-11-18T06:11:38;5.70;99.90
15341;DHT22;7770;52.158;5.372;2023-11-18T06:14:47;5.70;99.90
15341;DHT22;7770;52.158;5.372;2023-11-18T06:17:59;5.70;99.90
15341;DHT22;7770;52.158;5.372;2023-11-18T06:21:13;5.70;99.90
15341;DHT22;7770;52.158;5.372;2023-11-18T06:24:22;5.70;99.90
15341;DHT22;7770;52.158;5.372;2023-11-18T06:27:31;5.80;99.90
15341;DHT22;7770;52.158;5.372;2023-11-18T06:30:40;5.80;99.90
15341;DHT22;7770;52.158;5.372;2023-11-18T06:33:48;5.70;99.90
15341;DHT22;7770;52.158;5.372;2023-11-18T06:36:58;5.80;99.90
15341;DHT22;7770;52.158;5.372;2023-11-18T06:40:07;5.80;99.90
15341;DHT22;7770;52.158;5.372;2023-11-18T06:43:16;5.80;99.90
15341;DHT22;7770;52.158;5.372;2023-11-18T06:46:37;5.80;99.90
15341;DHT22;7770;52.158;5.372;2023-11-18T06:49:47;5.80;99.90
15341;DHT22;7770;52.158;5.372;2023-11-18T06:52:59;5.90;99.90
15341;DHT22;7770;52.158;5.372;2023-11-18T06:56:08;5.80;99.90
15341;DHT22;7770;52.158;5.372;2023-11-18T06:59:16;5.80;99.90
15341;DHT22;7770;52.158;5.372;2023-11-18T07:02:25;5.90;99.90
15341;DHT22;7770;52.158;5.372;2023-11-18T07:05:33;5.90;99.90
15341;DHT22;7770;52.158;5.372;2023-11-18T07:08:42;5.90;99.90
15341;DHT22;7770;52.158;5.372;2023-11-18T07:11:57;5.90;99.90
15341;DHT22;7770;52.158;5.372;2023-11-18T07:15:06;5.90;99.90
15341;DHT22;7770;52.158;5.372;2023-11-18T07:18:15;5.90;99.90
15341;DHT22;7770;52.158;5.372;2023-11-18T07:21:23;5.90;99.90
15341;DHT22;7770;52.158;5.372;2023-11-18T07:24:32;5.90;99.90
15341;DHT22;7770;52.158;5.372;2023-11-18T07:27:41;5.90;99.90
15341;DHT22;7770;52.158;5.372;2023-11-18T07:30:50;5.90;99.90
15341;DHT22;7770;52.158;5.372;2023-11-18T07:33:59;6.00;99.90
15341;DHT22;7770;52.158;5.372;2023-11-18T07:37:09;6.00;99.90
15341;DHT22;7770;52.158;5.372;2023-11-18T07:40:18;6.00;99.90
15341;DHT22;7770;52.158;5.372;2023-11-18T07:43:33;6.00;99.90
15341;DHT22;7770;52.158;5.372;2023-11-18T07:46:41;6.00;99.90
15341;DHT22;7770;52.158;5.372;2023-11-18T07:49:51;6.00;99.90
15341;DHT22;7770;52.158;5.372;2023-11-18T07:52:59;6.00;99.90
15341;DHT22;7770;52.158;5.372;2023-11-18T07:56:08;6.00;99.90
15341;DHT22;7770;52.158;5.372;2023-11-18T07:59:17;5.90;99.90
15341;DHT22;7770;52.158;5.372;2023-11-18T08:02:26;5.90;99.90
15341;DHT22;7770;52.158;5.372;2023-11-18T08:05:35;6.00;99.90
15341;DHT22;7770;52.158;5.372;2023-11-18T08:08:43;6.00;99.90
15341;DHT22;7770;52.158;5.372;2023-11-18T08:11:59;6.00;99.90
15341;DHT22;7770;52.158;5.372;2023-11-18T08:15:08;6.00;99.90
15341;DHT22;7770;52.158;5.372;2023-11-18T08:18:16;6.00;99.90
15341;DHT22;7770;52.158;5.372;2023-11-18T08:21:25;6.00;99.90
15341;DHT22;7770;52.158;5.372;2023-11-18T08:24:33;6.00;99.90
15341;DHT22;7770;52.158;5.372;2023-11-18T08:27:42;6.10;99.90
15341;DHT22;7770;52.158;5.372;2023-11-18T08:30:52;6.10;99.90
15341;DHT22;7770;52.158;5.372;2023-11-18T08:34:03;6.10;99.90
15341;DHT22;7770;52.158;5.372;2023-11-18T08:37:12;6.10;99.90
15341;DHT22;7770;52.158;5.372;2023-11-18T08:40:21;6.20;99.90
15341;DHT22;7770;52.158;5.372;2023-11-18T08:43:30;6.20;99.90
15341;DHT22;7770;52.158;5.372;2023-11-18T08:46:39;6.30;99.90
15341;DHT22;7770;52.158;5.372;2023-11-18T08:49:54;6.30;99.90
15341;DHT22;7770;52.158;5.372;2023-11-18T08:53:02;6.40;99.90
15341;DHT22;7770;52.158;5.372;2023-11-18T08:56:11;6.40;99.90
15341;DHT22;7770;52.158;5.372;2023-11-18T08:59:21;6.50;99.90
15341;DHT22;7770;52.158;5.372;2023-11-18T09:02:30;6.50;99.90
15341;DHT22;7770;52.158;5.372;2023-11-18T09:05:38;6.60;99.90
15341;DHT22;7770;52.158;5.372;2023-11-18T09:08:51;6.60;99.90
15341;DHT22;7770;52.158;5.372;2023-11-18T09:12:01;6.60;99.90
15341;DHT22;7770;52.158;5.372;2023-11-18T09:15:10;6.60;99.90
15341;DHT22;7770;52.158;5.372;2023-11-18T09:18:23;6.70;99.90
15341;DHT22;7770;52.158;5.372;2023-11-18T09:21:32;6.70;99.90
15341;DHT22;7770;52.158;5.372;2023-11-18T09:24:40;6.70;99.90
15341;DHT22;7770;52.158;5.372;2023-11-18T09:27:54;6.80;99.90
15341;DHT22;7770;52.158;5.372;2023-11-18T09:31:04;6.80;99.90
15341;DHT22;7770;52.158;5.372;2023-11-18T09:34:14;6.80;99.90
15341;DHT22;7770;52.158;5.372;2023-11-18T09:37:25;6.70;99.90
15341;DHT22;7770;52.158;5.372;2023-11-18T09:40:35;6.70;99.90
15341;DHT22;7770;52.158;5.372;2023-11-18T09:43:48;6.70;99.90
15341;DHT22;7770;52.158;5.372;2023-11-18T09:46:58;6.70;99.90
15341;DHT22;7770;52.158;5.372;2023-11-18T09:50:11;6.70;99.90
15341;DHT22;7770;52.158;5.372;2023-11-18T09:53:24;6.60;99.90
15341;DHT22;7770;52.158;5.372;2023-11-18T09:56:55;6.60;99.90
15341;DHT22;7770;52.158;5.372;2023-11-18T10:00:08;6.70;99.90
15341;DHT22;7770;52.158;5.372;2023-11-18T10:03:20;6.70;99.90
15341;DHT22;7770;52.158;5.372;2023-11-18T10:06:31;6.70;99.90
15341;DHT22;7770;52.158;5.372;2023-11-18T10:09:42;6.70;99.90
15341;DHT22;7770;52.158;5.372;2023-11-18T10:13:00;6.70;99.90
15341;DHT22;7770;52.158;5.372;2023-11-18T10:16:08;6.70;99.90
15341;DHT22;7770;52.158;5.372;2023-11-18T10:19:17;6.70;99.90
15341;DHT22;7770;52.158;5.372;2023-11-18T10:22:35;6.70;99.90
15341;DHT22;7770;52.158;5.372;2023-11-18T10:25:56;6.70;99.90
15341;DHT22;7770;52.158;5.372;2023-11-18T10:29:06;6.70;99.90
15341;DHT22;7770;52.158;5.372;2023-11-18T10:32:17;6.70;99.90
15341;DHT22;7770;52.158;5.372;2023-11-18T10:35:27;6.80;99.90
15341;DHT22;7770;52.158;5.372;2023-11-18T10:38:40;6.80;99.90
15341;DHT22;7770;52.158;5.372;2023-11-18T10:41:59;6.80;99.90
15341;DHT22;7770;52.158;5.372;2023-11-18T10:45:11;6.70;99.90
15341;DHT22;7770;52.158;5.372;2023-11-18T10:48:19;6.70;99.90
15341;DHT22;7770;52.158;5.372;2023-11-18T10:51:28;6.80;99.90
15341;DHT22;7770;52.158;5.372;2023-11-18T10:54:37;6.80;99.90
15341;DHT22;7770;52.158;5.372;2023-11-18T10:57:52;6.80;99.90
15341;DHT22;7770;52.158;5.372;2023-11-18T11:01:01;6.90;99.90
15341;DHT22;7770;52.158;5.372;2023-11-18T11:04:17;6.80;99.90
15341;DHT22;7770;52.158;5.372;2023-11-18T11:07:32;6.90;99.90
15341;DHT22;7770;52.158;5.372;2023-11-18T11:10:41;6.90;99.90
15341;DHT22;7770;52.158;5.372;2023-11-18T11:13:56;6.90;99.90
15341;DHT22;7770;52.158;5.372;2023-11-18T11:17:07;7.00;99.90
15341;DHT22;7770;52.158;5.372;2023-11-18T11:20:21;7.00;99.90
15341;DHT22;7770;52.158;5.372;2023-11-18T11:23:55;7.00;99.90
15341;DHT22;7770;52.158;5.372;2023-11-18T11:27:21;7.00;99.90
15341;DHT22;7770;52.158;5.372;2023-11-18T11:30:50;7.00;99.90
15341;DHT22;7770;52.158;5.372;2023-11-18T11:34:14;7.00;99.90
15341;DHT22;7770;52.158;5.372;2023-11-18T11:37:29;7.10;99.90
15341;DHT22;7770;52.158;5.372;2023-11-18T11:40:41;7.10;99.90
15341;DHT22;7770;52.158;5.372;2023-11-18T11:43:54;7.10;99.90
15341;DHT22;7770;52.158;5.372;2023-11-18T11:47:06;7.20;99.90
15341;DHT22;7770;52.158;5.372;2023-11-18T11:50:27;7.20;99.90
15341;DHT22;7770;52.158;5.372;2023-11-18T11:54:02;7.30;99.90
15341;DHT22;7770;52.158;5.372;2023-11-18T11:57:14;7.30;99.90
15341;DHT22;7770;52.158;5.372;2023-11-18T12:00:24;7.30;99.90
15341;DHT22;7770;52.158;5.372;2023-11-18T12:03:39;7.40;99.90
15341;DHT22;7770;52.158;5.372;2023-11-18T12:06:52;7.40;99.90
15341;DHT22;7770;52.158;5.372;2023-11-18T12:10:01;7.50;99.90
15341;DHT22;7770;52.158;5.372;2023-11-18T12:13:17;7.40;99.90
15341;DHT22;7770;52.158;5.372;2023-11-18T12:20:43;7.60;99.90
15341;DHT22;7770;52.158;5.372;2023-11-18T12:24:15;7.70;99.90
15341;DHT22;7770;52.158;5.372;2023-11-18T12:30:57;7.70;99.90
15341;DHT22;7770;52.158;5.372;2023-11-18T12:34:48;7.70;99.90
15341;DHT22;7770;52.158;5.372;2023-11-18T12:38:21;7.70;99.90
15341;DHT22;7770;52.158;5.372;2023-11-18T12:41:59;7.70;99.90
15341;DHT22;7770;52.158;5.372;2023-11-18T12:46:17;7.70;99.90
15341;DHT22;7770;52.158;5.372;2023-11-18T12:49:41;7.70;99.90
15341;DHT22;7770;52.158;5.372;2023-11-18T12:53:02;7.80;99.90
15341;DHT22;7770;52.158;5.372;2023-11-18T12:56:12;7.80;99.90
15341;DHT22;7770;52.158;5.372;2023-11-18T12:59:43;7.70;99.90
15341;DHT22;7770;52.158;5.372;2023-11-18T13:02:31;7.70;99.90
15341;DHT22;7770;52.158;5.372;2023-11-18T13:05:17;7.70;99.90
15341;DHT22;7770;52.158;5.372;2023-11-18T13:08:04;7.70;99.90
15341;DHT22;7770;52.158;5.372;2023-11-18T13:10:50;7.70;99.90
15341;DHT22;7770;52.158;5.372;2023-11-18T13:13:36;7.80;99.90
15341;DHT22;7770;52.158;5.372;2023-11-18T13:16:22;7.80;99.90
15341;DHT22;7770;52.158;5.372;2023-11-18T13:19:11;7.80;99.90
15341;DHT22;7770;52.158;5.372;2023-11-18T13:21:58;7.80;99.90
15341;DHT22;7770;52.158;5.372;2023-11-18T13:24:44;7.90;99.90
15341;DHT22;7770;52.158;5.372;2023-11-18T13:27:30;7.90;99.90
15341;DHT22;7770;52.158;5.372;2023-11-18T13:30:18;7.90;99.90
15341;DHT22;7770;52.158;5.372;2023-11-18T13:33:06;7.90;99.90
15341;DHT22;7770;52.158;5.372;2023-11-18T13:35:53;7.90;99.90
15341;DHT22;7770;52.158;5.372;2023-11-18T13:38:40;7.90;99.90
15341;DHT22;7770;52.158;5.372;2023-11-18T13:41:30;7.90;99.90
15341;DHT22;7770;52.158;5.372;2023-11-18T13:47:23;7.90;99.90
15341;DHT22;7770;52.158;5.372;2023-11-18T13:50:10;7.90;99.90
15341;DHT22;7770;52.158;5.372;2023-11-18T13:52:56;8.00;99.90
15341;DHT22;7770;52.158;5.372;2023-11-18T13:55:43;8.00;99.90
15341;DHT22;7770;52.158;5.372;2023-11-18T13:58:29;8.00;99.90
15341;DHT22;7770;52.158;5.372;2023-11-18T14:01:15;8.00;99.90
15341;DHT22;7770;52.158;5.372;2023-11-18T14:04:01;8.10;99.90
15341;DHT22;7770;52.158;5.372;2023-11-18T14:06:56;8.00;99.90
15341;DHT22;7770;52.158;5.372;2023-11-18T14:09:43;8.00;99.90
15341;DHT22;7770;52.158;5.372;2023-11-18T14:12:30;8.00;99.90
15341;DHT22;7770;52.158;5.372;2023-11-18T14:15:16;8.10;99.90
15341;DHT22;7770;52.158;5.372;2023-11-18T14:18:04;8.00;99.90
15341;DHT22;7770;52.158;5.372;2023-11-18T14:20:53;8.00;99.90
15341;DHT22;7770;52.158;5.372;2023-11-18T14:23:40;8.00;99.90
15341;DHT22;7770;52.158;5.372;2023-11-18T14:26:27;8.00;99.90
15341;DHT22;7770;52.158;5.372;2023-11-18T14:29:13;8.00;99.90
15341;DHT22;7770;52.158;5.372;2023-11-18T14:31:58;8.00;99.90
15341;DHT22;7770;52.158;5.372;2023-11-18T14:34:44;8.00;99.90
15341;DHT22;7770;52.158;5.372;2023-11-18T14:37:30;8.00;99.90
15341;DHT22;7770;52.158;5.372;2023-11-18T14:40:16;8.00;99.90
15341;DHT22;7770;52.158;5.372;2023-11-18T14:43:02;8.00;99.90
15341;DHT22;7770;52.158;5.372;2023-11-18T14:45:48;8.00;99.90
15341;DHT22;7770;52.158;5.372;2023-11-18T14:48:34;8.00;99.90
15341;DHT22;7770;52.158;5.372;2023-11-18T14:51:20;8.00;99.90
15341;DHT22;7770;52.158;5.372;2023-11-18T14:54:06;8.00;99.90
15341;DHT22;7770;52.158;5.372;2023-11-18T14:56:52;8.10;99.90
15341;DHT22;7770;52.158;5.372;2023-11-18T14:59:38;8.10;99.90
15341;DHT22;7770;52.158;5.372;2023-11-18T15:02:24;8.10;99.90
15341;DHT22;7770;52.158;5.372;2023-11-18T15:05:10;8.10;99.90
15341;DHT22;7770;52.158;5.372;2023-11-18T15:07:57;8.10;99.90
15341;DHT22;7770;52.158;5.372;2023-11-18T15:10:46;8.10;99.90
15341;DHT22;7770;52.158;5.372;2023-11-18T15:13:32;8.10;99.90
15341;DHT22;7770;52.158;5.372;2023-11-18T15:16:18;8.10;99.90
15341;DHT22;7770;52.158;5.372;2023-11-18T15:19:04;8.10;99.90
15341;DHT22;7770;52.158;5.372;2023-11-18T15:21:50;8.10;99.90
15341;DHT22;7770;52.158;5.372;2023-11-18T15:24:38;8.10;99.90
15341;DHT22;7770;52.158;5.372;2023-11-18T15:27:23;8.10;99.90
15341;DHT22;7770;52.158;5.372;2023-11-18T15:30:11;8.20;99.90
15341;DHT22;7770;52.158;5.372;2023-11-18T15:32:57;8.20;99.90
15341;DHT22;7770;52.158;5.372;2023-11-18T15:35:43;8.20;99.90
15341;DHT22;7770;52.158;5.372;2023-11-18T15:38:29;8.20;99.90
15341;DHT22;7770;52.158;5.372;2023-11-18T15:41:14;8.20;99.90
15341;DHT22;7770;52.158;5.372;2023-11-18T15:44:00;8.20;99.90
15341;DHT22;7770;52.158;5.372;2023-11-18T15:46:49;8.30;99.90
15341;DHT22;7770;52.158;5.372;2023-11-18T15:49:35;8.20;99.90
15341;DHT22;7770;52.158;5.372;2023-11-18T15:52:21;8.20;99.90
15341;DHT22;7770;52.158;5.372;2023-11-18T15:55:07;8.20;99.90
15341;DHT22;7770;52.158;5.372;2023-11-18T15:57:59;8.20;99.90
15341;DHT22;7770;52.158;5.372;2023-11-18T16:00:45;8.20;99.90
15341;DHT22;7770;52.158;5.372;2023-11-18T16:03:31;8.30;99.90
15341;DHT22;7770;52.158;5.372;2023-11-18T16:06:17;8.30;99.90
15341;DHT22;7770;52.158;5.372;2023-11-18T16:09:04;8.30;99.90
15341;DHT22;7770;52.158;5.372;2023-11-18T16:11:52;8.30;99.90
15341;DHT22;7770;52.158;5.372;2023-11-18T16:14:38;8.30;99.90
15341;DHT22;7770;52.158;5.372;2023-11-18T16:17:24;8.40;99.90
15341;DHT22;7770;52.158;5.372;2023-11-18T16:20:10;8.30;99.90
15341;DHT22;7770;52.158;5.372;2023-11-18T16:22:56;8.40;99.90
15341;DHT22;7770;52.158;5.372;2023-11-18T16:25:42;8.40;99.90
15341;DHT22;7770;52.158;5.372;2023-11-18T16:28:28;8.40;99.90
15341;DHT22;7770;52.158;5.372;2023-11-18T16:31:14;8.40;99.90
15341;DHT22;7770;52.158;5.372;2023-11-18T16:34:00;8.40;99.90
15341;DHT22;7770;52.158;5.372;2023-11-18T16:36:48;8.40;99.90
15341;DHT22;7770;52.158;5.372;2023-11-18T16:39:35;8.40;99.90
15341;DHT22;7770;52.158;5.372;2023-11-18T16:42:21;8.50;99.90
15341;DHT22;7770;52.158;5.372;2023-11-18T16:45:13;8.50;99.90
15341;DHT22;7770;52.158;5.372;2023-11-18T16:47:59;8.50;99.90
15341;DHT22;7770;52.158;5.372;2023-11-18T16:50:45;8.50;99.90
15341;DHT22;7770;52.158;5.372;2023-11-18T16:53:31;8.50;99.90
15341;DHT22;7770;52.158;5.372;2023-11-18T16:56:19;8.50;99.90
15341;DHT22;7770;52.158;5.372;2023-11-18T16:59:04;8.60;99.90
15341;DHT22;7770;52.158;5.372;2023-11-18T17:01:50;8.60;99.90
15341;DHT22;7770;52.158;5.372;2023-11-18T17:04:36;8.60;99.90
15341;DHT22;7770;52.158;5.372;2023-11-18T17:07:22;8.70;99.90
15341;DHT22;7770;52.158;5.372;2023-11-18T17:10:08;8.70;99.90
15341;DHT22;7770;52.158;5.372;2023-11-18T17:12:57;8.80;99.90
15341;DHT22;7770;52.158;5.372;2023-11-18T17:15:46;8.80;99.90
15341;DHT22;7770;52.158;5.372;2023-11-18T17:18:33;8.80;99.90
15341;DHT22;7770;52.158;5.372;2023-11-18T17:21:19;8.80;99.90
15341;DHT22;7770;52.158;5.372;2023-11-18T17:24:05;8.80;99.90
15341;DHT22;7770;52.158;5.372;2023-11-18T17:26:52;8.90;99.90
15341;DHT22;7770;52.158;5.372;2023-11-18T17:29:39;8.90;99.90
15341;DHT22;7770;52.158;5.372;2023-11-18T17:32:25;9.00;99.90
15341;DHT22;7770;52.158;5.372;2023-11-18T17:35:12;9.00;99.90
15341;DHT22;7770;52.158;5.372;2023-11-18T17:38:01;9.10;99.90
15341;DHT22;7770;52.158;5.372;2023-11-18T17:40:47;9.10;99.90
15341;DHT22;7770;52.158;5.372;2023-11-18T17:43:33;9.10;99.90
15341;DHT22;7770;52.158;5.372;2023-11-18T17:46:19;9.20;99.90
15341;DHT22;7770;52.158;5.372;2023-11-18T17:49:05;9.20;99.90
15341;DHT22;7770;52.158;5.372;2023-11-18T17:51:51;9.30;99.90
15341;DHT22;7770;52.158;5.372;2023-11-18T17:54:38;9.30;99.90
15341;DHT22;7770;52.158;5.372;2023-11-18T17:57:24;9.30;99.90
15341;DHT22;7770;52.158;5.372;2023-11-18T18:00:11;9.40;99.90
15341;DHT22;7770;52.158;5.372;2023-11-18T18:03:05;9.40;99.90
15341;DHT22;7770;52.158;5.372;2023-11-18T18:05:52;9.40;99.90
15341;DHT22;7770;52.158;5.372;2023-11-18T18:08:38;9.50;99.90
15341;DHT22;7770;52.158;5.372;2023-11-18T18:11:24;9.50;99.90
15341;DHT22;7770;52.158;5.372;2023-11-18T18:14:10;9.60;99.90
15341;DHT22;7770;52.158;5.372;2023-11-18T18:16:56;9.60;99.90
15341;DHT22;7770;52.158;5.372;2023-11-18T18:19:43;9.70;99.90
15341;DHT22;7770;52.158;5.372;2023-11-18T18:22:28;9.70;99.90
15341;DHT22;7770;52.158;5.372;2023-11-18T18:25:15;9.70;99.90
15341;DHT22;7770;52.158;5.372;2023-11-18T18:28:01;9.80;99.90
15341;DHT22;7770;52.158;5.372;2023-11-18T18:30:46;9.80;99.90
15341;DHT22;7770;52.158;5.372;2023-11-18T18:33:34;9.90;99.90
15341;DHT22;7770;52.158;5.372;2023-11-18T18:36:20;10.00;99.90
15341;DHT22;7770;52.158;5.372;2023-11-18T18:39:06;10.00;99.90
15341;DHT22;7770;52.158;5.372;2023-11-18T18:41:52;10.10;99.90
15341;DHT22;7770;52.158;5.372;2023-11-18T18:44:38;10.20;99.90
15341;DHT22;7770;52.158;5.372;2023-11-18T18:47:24;10.30;99.90
15341;DHT22;7770;52.158;5.372;2023-11-18T18:50:10;10.30;99.90
15341;DHT22;7770;52.158;5.372;2023-11-18T18:52:56;10.40;99.90
15341;DHT22;7770;52.158;5.372;2023-11-18T18:55:42;10.40;99.90
15341;DHT22;7770;52.158;5.372;2023-11-18T18:58:27;10.50;99.90
15341;DHT22;7770;52.158;5.372;2023-11-18T19:01:14;10.60;99.90
15341;DHT22;7770;52.158;5.372;2023-11-18T19:04:00;10.60;99.90
15341;DHT22;7770;52.158;5.372;2023-11-18T19:06:46;10.70;99.90
15341;DHT22;7770;52.158;5.372;2023-11-18T19:09:32;10.70;99.90
15341;DHT22;7770;52.158;5.372;2023-11-18T19:12:18;10.80;99.90
15341;DHT22;7770;52.158;5.372;2023-11-18T19:15:04;10.90;99.90
15341;DHT22;7770;52.158;5.372;2023-11-18T19:17:50;10.90;99.90
15341;DHT22;7770;52.158;5.372;2023-11-18T19:20:37;11.00;99.90
15341;DHT22;7770;52.158;5.372;2023-11-18T19:23:23;11.10;99.90
15341;DHT22;7770;52.158;5.372;2023-11-18T19:26:09;11.10;99.90
15341;DHT22;7770;52.158;5.372;2023-11-18T19:28:55;11.10;99.90
15341;DHT22;7770;52.158;5.372;2023-11-18T19:31:41;11.20;99.90
15341;DHT22;7770;52.158;5.372;2023-11-18T19:34:27;11.20;99.90
15341;DHT22;7770;52.158;5.372;2023-11-18T19:37:12;11.30;99.90
15341;DHT22;7770;52.158;5.372;2023-11-18T19:39:59;11.30;99.90
15341;DHT22;7770;52.158;5.372;2023-11-18T19:42:45;11.30;99.90
15341;DHT22;7770;52.158;5.372;2023-11-18T19:45:30;11.40;99.90